Time;durP1;ratioP1;P1;durP2;ratioP2;P2;SDS_P1;SDS_P2;PMS_P1;PMS_P2;Temp;Humidity;BMP_temperature;BMP_pressure;BME280_temperature;BME280_humidity;BME280_pressure;Samples;Min_cycle;Max_cycle;Signal;HPM_P1;HPM_P2
2021/08/28 00:01:03;;;;;;;8.13;3.40;;;13.70;99.90;;;;;;4953091;29;20043;-66
2021/08/28 00:03:28;;;;;;;8.93;2.90;;;13.70;99.90;;;;;;4953214;28;20445;-66
2021/08/28 00:05:54;;;;;;;8.85;3.25;;;13.70;99.90;;;;;;4950221;28;20031;-66
2021/08/28 00:08:19;;;;;;;10.30;3.55;;;13.80;99.90;;;;;;4950124;29;20082;-66
2021/08/28 00:10:46;;;;;;;11.63;3.75;;;13.80;99.90;;;;;;4953267;29;20027;-66
2021/08/28 00:13:12;;;;;;;12.05;3.97;;;13.80;99.90;;;;;;4953393;28;20054;-66
2021/08/28 00:15:38;;;;;;;10.85;3.60;;;14.00;99.90;;;;;;4949785;29;20044;-66
2021/08/28 00:18:04;;;;;;;10.30;3.78;;;14.10;99.90;;;;;;4953295;28;20393;-66
2021/08/28 00:20:30;;;;;;;9.70;3.20;;;14.10;99.90;;;;;;4952577;28;20082;-66
2021/08/28 00:22:56;;;;;;;7.70;2.60;;;14.10;99.90;;;;;;4953090;28;20039;-66
2021/08/28 00:25:21;;;;;;;6.00;2.83;;;14.20;99.90;;;;;;4952742;29;20038;-66
2021/08/28 00:27:47;;;;;;;8.20;3.13;;;14.20;99.90;;;;;;4952119;28;20037;-66
2021/08/28 00:30:13;;;;;;;10.48;3.63;;;14.20;99.90;;;;;;4952424;28;20027;-66
2021/08/28 00:32:39;;;;;;;9.48;3.38;;;14.30;99.90;;;;;;4950430;29;20050;-66
2021/08/28 00:35:06;;;;;;;9.77;2.92;;;14.30;99.90;;;;;;4951251;28;20106;-66
2021/08/28 00:37:32;;;;;;;11.25;2.90;;;14.20;99.90;;;;;;4952396;28;20476;-66
2021/08/28 00:39:58;;;;;;;9.15;3.00;;;14.20;99.90;;;;;;4951870;28;20421;-66
2021/08/28 00:42:24;;;;;;;12.00;3.78;;;14.10;99.90;;;;;;4953477;28;20031;-66
2021/08/28 00:44:51;;;;;;;9.90;3.42;;;14.00;99.90;;;;;;4952142;28;20038;-66
2021/08/28 00:47:18;;;;;;;7.70;3.00;;;14.00;99.90;;;;;;4950253;28;20102;-65
2021/08/28 00:49:48;;;;;;;11.27;3.05;;;14.00;99.90;;;;;;4939735;29;20433;-65
2021/08/28 00:52:16;;;;;;;9.43;3.40;;;14.00;99.90;;;;;;4948986;29;20023;-66
2021/08/28 00:54:41;;;;;;;16.05;3.63;;;14.00;99.90;;;;;;4952867;28;20114;-66
2021/08/28 00:57:10;;;;;;;7.78;2.85;;;14.00;99.90;;;;;;4949602;28;20110;-66
2021/08/28 00:59:36;;;;;;;15.55;3.97;;;14.00;99.90;;;;;;4953450;28;20493;-66
2021/08/28 01:02:04;;;;;;;9.35;3.30;;;14.00;99.90;;;;;;4952565;28;20035;-66
2021/08/28 01:04:39;;;;;;;10.60;3.63;;;14.10;99.90;;;;;;4951768;28;20036;-66
2021/08/28 01:07:16;;;;;;;10.80;2.83;;;14.10;99.90;;;;;;4948356;28;20026;-65
2021/08/28 01:09:45;;;;;;;10.18;3.20;;;14.10;99.90;;;;;;4951303;28;20035;-66
2021/08/28 01:12:22;;;;;;;11.73;2.90;;;14.20;99.90;;;;;;4952868;28;20457;-66
2021/08/28 01:14:54;;;;;;;10.73;3.05;;;14.30;99.90;;;;;;4951169;28;20058;-66
2021/08/28 01:17:20;;;;;;;9.10;3.17;;;14.30;99.90;;;;;;4949410;28;20039;-65
2021/08/28 01:20:20;;;;;;;9.45;2.63;;;14.30;99.90;;;;;;4952934;28;20076;-66
2021/08/28 01:22:47;;;;;;;12.98;2.88;;;14.40;99.90;;;;;;4972317;28;20036;-66
2021/08/28 01:25:14;;;;;;;12.07;3.60;;;14.40;99.90;;;;;;4950990;28;20474;-66
2021/08/28 01:27:46;;;;;;;9.80;2.85;;;14.50;99.90;;;;;;4945266;28;20095;-66
2021/08/28 01:30:13;;;;;;;8.60;3.03;;;14.50;99.90;;;;;;4952037;29;20167;-66
2021/08/28 01:32:39;;;;;;;13.38;3.70;;;14.60;99.90;;;;;;4951120;28;20094;-65
2021/08/28 01:35:06;;;;;;;12.27;2.67;;;14.60;99.90;;;;;;4950198;28;20073;-66
2021/08/28 01:37:31;;;;;;;13.73;3.03;;;14.60;99.90;;;;;;4947285;29;20023;-66
2021/08/28 01:40:02;;;;;;;10.45;3.38;;;14.70;99.90;;;;;;4970904;28;20035;-66
2021/08/28 01:42:31;;;;;;;14.55;2.60;;;14.70;99.90;;;;;;4943354;29;20118;-65
2021/08/28 01:44:57;;;;;;;10.10;2.97;;;14.80;99.90;;;;;;4952187;28;20066;-66
2021/08/28 01:47:24;;;;;;;9.35;2.85;;;14.80;99.90;;;;;;4949460;29;20034;-66
2021/08/28 01:49:50;;;;;;;10.60;2.78;;;14.90;99.90;;;;;;4950894;28;20031;-65
2021/08/28 01:52:16;;;;;;;11.25;2.97;;;14.90;99.90;;;;;;4956207;28;20027;-65
2021/08/28 01:54:42;;;;;;;13.77;3.53;;;14.90;99.90;;;;;;4955358;28;20035;-65
2021/08/28 01:57:11;;;;;;;13.30;3.22;;;14.90;99.90;;;;;;4953621;29;20374;-66
2021/08/28 01:59:38;;;;;;;8.02;2.50;;;15.00;99.90;;;;;;4942651;29;20035;-65
2021/08/28 02:02:03;;;;;;;10.40;2.47;;;15.00;99.90;;;;;;4955692;28;20027;-66
2021/08/28 02:04:29;;;;;;;10.25;2.83;;;15.10;99.90;;;;;;4954477;28;20320;-66
2021/08/28 02:07:01;;;;;;;9.05;2.45;;;15.10;99.90;;;;;;4952020;28;20058;-66
2021/08/28 02:09:49;;;;;;;7.00;2.42;;;15.10;99.90;;;;;;4953530;28;20027;-66
2021/08/28 02:12:18;;;;;;;8.73;2.80;;;15.10;99.90;;;;;;4955379;28;20027;-66
2021/08/28 02:14:55;;;;;;;10.75;2.53;;;15.10;99.90;;;;;;4952993;28;20027;-65
2021/08/28 02:17:24;;;;;;;11.38;3.08;;;15.10;99.90;;;;;;4952084;28;20046;-65
2021/08/28 02:19:50;;;;;;;13.90;3.17;;;15.10;99.90;;;;;;4954143;28;20023;-66
2021/08/28 02:22:19;;;;;;;8.63;2.78;;;15.10;99.90;;;;;;4954355;28;20042;-66
2021/08/28 02:24:48;;;;;;;15.50;3.40;;;15.10;99.90;;;;;;4952814;28;20042;-66
2021/08/28 02:27:25;;;;;;;10.27;3.55;;;15.10;99.90;;;;;;4952557;29;20122;-66
2021/08/28 02:29:55;;;;;;;12.45;3.35;;;15.10;99.90;;;;;;4955533;29;20130;-66
2021/08/28 02:32:22;;;;;;;15.50;3.70;;;15.10;99.90;;;;;;4952538;28;20074;-66
2021/08/28 02:34:50;;;;;;;9.27;3.30;;;15.10;99.90;;;;;;4954950;28;20028;-66
2021/08/28 02:37:16;;;;;;;10.02;3.05;;;15.00;99.90;;;;;;4952047;28;20130;-66
2021/08/28 02:39:45;;;;;;;17.85;3.97;;;15.00;99.90;;;;;;4955045;29;20027;-66
2021/08/28 02:42:12;;;;;;;7.15;2.97;;;15.00;99.90;;;;;;4954646;29;20086;-66
2021/08/28 02:44:39;;;;;;;14.90;3.65;;;15.00;99.90;;;;;;4954593;28;20098;-66
2021/08/28 02:47:06;;;;;;;10.77;3.20;;;15.00;99.90;;;;;;4951866;28;20023;-66
2021/08/28 02:49:35;;;;;;;9.63;3.33;;;15.00;99.90;;;;;;4952760;28;20442;-66
2021/08/28 02:52:02;;;;;;;13.52;3.55;;;15.00;99.90;;;;;;4953257;28;20031;-66
2021/08/28 02:54:29;;;;;;;11.43;3.58;;;15.00;99.90;;;;;;4953586;29;20038;-66
2021/08/28 02:56:55;;;;;;;12.15;3.22;;;14.90;99.90;;;;;;4951622;29;20066;-66
2021/08/28 02:59:24;;;;;;;12.70;3.60;;;14.90;99.90;;;;;;4955332;28;20110;-66
2021/08/28 03:01:50;;;;;;;14.57;3.55;;;14.90;99.90;;;;;;4952418;28;20035;-66
2021/08/28 03:04:19;;;;;;;12.27;3.35;;;14.90;99.90;;;;;;4953471;28;20046;-66
2021/08/28 03:06:46;;;;;;;14.45;3.50;;;14.90;99.90;;;;;;4951492;29;20023;-66
2021/08/28 03:09:13;;;;;;;10.32;3.70;;;14.90;99.90;;;;;;4954558;28;20038;-66
2021/08/28 03:11:38;;;;;;;11.88;3.88;;;14.90;99.90;;;;;;4953138;29;20114;-66
2021/08/28 03:14:05;;;;;;;11.93;4.03;;;15.00;99.90;;;;;;4955275;28;20526;-66
2021/08/28 03:16:30;;;;;;;11.05;3.90;;;15.00;99.90;;;;;;4950884;29;20122;-66
2021/08/28 03:18:58;;;;;;;11.32;4.28;;;15.00;99.90;;;;;;4952772;29;20034;-66
2021/08/28 03:21:27;;;;;;;13.20;4.43;;;15.10;99.90;;;;;;4953519;28;20090;-66
2021/08/28 03:23:56;;;;;;;9.40;3.95;;;15.10;99.90;;;;;;4953869;28;20035;-66
2021/08/28 03:26:23;;;;;;;11.55;4.32;;;15.10;99.90;;;;;;4951491;28;20607;-66
2021/08/28 03:28:51;;;;;;;9.15;4.15;;;15.20;99.90;;;;;;4954932;28;20027;-66
2021/08/28 03:31:18;;;;;;;11.20;4.18;;;15.20;99.90;;;;;;4952031;28;20139;-66
2021/08/28 03:33:46;;;;;;;14.48;4.50;;;15.20;99.90;;;;;;4953156;28;20377;-66
2021/08/28 03:36:15;;;;;;;15.07;3.92;;;15.20;99.90;;;;;;4952943;28;20050;-66
2021/08/28 03:38:40;;;;;;;18.77;4.78;;;15.30;99.90;;;;;;4953830;28;20062;-66
2021/08/28 03:41:08;;;;;;;17.13;4.50;;;15.30;99.90;;;;;;4953391;28;20493;-66
2021/08/28 03:43:35;;;;;;;10.88;4.00;;;15.20;99.90;;;;;;4947999;29;20073;-66
2021/08/28 03:46:01;;;;;;;12.38;4.18;;;15.30;99.90;;;;;;4951204;29;20047;-66
2021/08/28 03:48:26;;;;;;;11.25;4.20;;;15.30;99.90;;;;;;4952826;29;20066;-66
2021/08/28 03:50:52;;;;;;;13.13;4.97;;;15.40;99.90;;;;;;4952773;29;20035;-66
2021/08/28 03:53:17;;;;;;;12.15;4.13;;;15.30;99.90;;;;;;4952568;29;20102;-66
2021/08/28 03:55:43;;;;;;;16.15;4.85;;;15.30;99.90;;;;;;4953005;28;20056;-66
2021/08/28 03:58:08;;;;;;;12.70;4.80;;;15.40;99.90;;;;;;4953219;29;20035;-65
2021/08/28 04:00:34;;;;;;;13.43;5.65;;;15.40;99.90;;;;;;4951676;29;20043;-66
2021/08/28 04:03:00;;;;;;;10.23;4.55;;;15.40;99.90;;;;;;4951858;29;20430;-66
2021/08/28 04:05:25;;;;;;;12.48;4.55;;;15.40;99.90;;;;;;4952264;29;20035;-66
2021/08/28 04:07:51;;;;;;;12.88;4.65;;;15.40;99.90;;;;;;4951544;29;20050;-66
2021/08/28 04:10:18;;;;;;;15.77;4.82;;;15.40;99.90;;;;;;4952060;28;20024;-66
2021/08/28 04:12:43;;;;;;;10.60;4.38;;;15.40;99.90;;;;;;4952518;28;20446;-66
2021/08/28 04:15:09;;;;;;;10.75;4.70;;;15.40;99.90;;;;;;4951665;28;20031;-66
2021/08/28 04:17:36;;;;;;;14.05;4.68;;;15.40;99.90;;;;;;4950025;29;20393;-66
2021/08/28 04:20:02;;;;;;;12.55;4.45;;;15.40;99.90;;;;;;4952390;28;20039;-66
2021/08/28 04:22:27;;;;;;;9.88;4.10;;;15.40;99.90;;;;;;4951769;28;20114;-66
2021/08/28 04:24:53;;;;;;;7.18;3.88;;;15.40;99.90;;;;;;4952681;29;20102;-66
2021/08/28 04:27:18;;;;;;;11.77;4.35;;;15.40;99.90;;;;;;4950995;28;20027;-67
2021/08/28 04:29:44;;;;;;;9.88;4.93;;;15.40;99.90;;;;;;4952084;28;20465;-66
2021/08/28 04:32:09;;;;;;;10.60;3.92;;;15.40;99.90;;;;;;4949624;28;20055;-66
2021/08/28 04:34:35;;;;;;;10.77;4.72;;;15.40;99.90;;;;;;4951459;28;20038;-66
2021/08/28 04:37:00;;;;;;;11.40;4.63;;;15.40;99.90;;;;;;4951843;28;20067;-65
2021/08/28 04:39:26;;;;;;;11.57;4.40;;;15.40;99.90;;;;;;4952212;28;20039;-66
2021/08/28 04:41:51;;;;;;;11.20;4.00;;;15.40;99.90;;;;;;4951139;28;20478;-66
2021/08/28 04:44:17;;;;;;;10.55;4.07;;;15.40;99.90;;;;;;4950849;29;20031;-66
2021/08/28 04:46:42;;;;;;;10.02;4.00;;;15.40;99.90;;;;;;4949172;28;20498;-66
2021/08/28 04:49:08;;;;;;;10.57;4.70;;;15.40;99.90;;;;;;4952547;28;20089;-66
2021/08/28 04:51:33;;;;;;;8.55;4.60;;;15.40;99.90;;;;;;4951904;29;20038;-66
2021/08/28 04:53:59;;;;;;;10.65;4.38;;;15.40;99.90;;;;;;4949729;28;20035;-66
2021/08/28 04:56:25;;;;;;;10.07;4.57;;;15.40;99.90;;;;;;4950835;29;20040;-66
2021/08/28 04:58:50;;;;;;;10.57;4.55;;;15.40;99.90;;;;;;4952638;28;20038;-66
2021/08/28 05:01:16;;;;;;;8.63;4.38;;;15.40;99.90;;;;;;4949949;28;20034;-66
2021/08/28 05:03:41;;;;;;;9.52;4.95;;;15.40;99.90;;;;;;4948633;29;20071;-66
2021/08/28 05:06:07;;;;;;;9.00;5.20;;;15.40;99.90;;;;;;4950040;28;20023;-66
2021/08/28 05:08:32;;;;;;;9.60;5.10;;;15.50;99.90;;;;;;4945298;29;20038;-66
2021/08/28 05:11:01;;;;;;;12.25;5.38;;;15.50;99.90;;;;;;4951905;28;20398;-66
2021/08/28 05:13:27;;;;;;;8.25;4.82;;;15.50;99.90;;;;;;4952911;28;20031;-66
2021/08/28 05:15:52;;;;;;;9.57;4.78;;;15.50;99.90;;;;;;4970381;28;20038;-66
2021/08/28 05:18:17;;;;;;;10.77;5.50;;;15.50;99.90;;;;;;4950188;29;20039;-66
2021/08/28 05:20:43;;;;;;;12.20;4.45;;;15.50;99.90;;;;;;4950513;29;20094;-67
2021/08/28 05:23:08;;;;;;;7.95;4.05;;;15.50;99.90;;;;;;4951358;28;20051;-67
2021/08/28 05:25:34;;;;;;;10.85;3.55;;;15.40;99.90;;;;;;4950199;28;20027;-66
2021/08/28 05:28:00;;;;;;;12.88;5.13;;;15.40;99.90;;;;;;4955482;28;20083;-67
2021/08/28 05:30:25;;;;;;;8.40;3.63;;;15.40;99.90;;;;;;4953300;29;20019;-66
2021/08/28 05:32:51;;;;;;;10.35;4.47;;;15.40;99.90;;;;;;4954715;29;20584;-66
2021/08/28 05:35:16;;;;;;;8.88;3.85;;;15.40;99.90;;;;;;4954008;28;20115;-66
2021/08/28 05:37:42;;;;;;;8.10;3.05;;;15.40;99.90;;;;;;4981441;28;20031;-67
2021/08/28 05:40:08;;;;;;;8.15;3.33;;;15.40;99.90;;;;;;4956386;28;20478;-66
2021/08/28 05:42:35;;;;;;;7.22;3.03;;;15.50;99.90;;;;;;4955555;28;20046;-66
2021/08/28 05:45:00;;;;;;;7.30;3.00;;;15.50;99.90;;;;;;4953603;28;20047;-66
2021/08/28 05:47:26;;;;;;;8.85;2.95;;;15.50;99.90;;;;;;4950351;28;20482;-66
2021/08/28 05:49:51;;;;;;;7.45;3.45;;;15.60;99.90;;;;;;4953799;28;20039;-66
2021/08/28 05:52:17;;;;;;;8.82;3.65;;;15.70;99.90;;;;;;4949664;28;20110;-66
2021/08/28 05:54:42;;;;;;;7.55;3.45;;;15.70;99.90;;;;;;4959788;28;20536;-66
2021/08/28 05:57:08;;;;;;;6.35;3.28;;;15.70;99.90;;;;;;4956234;28;20442;-66
2021/08/28 05:59:33;;;;;;;6.20;2.92;;;15.70;99.90;;;;;;4954978;29;20035;-66
2021/08/28 06:01:59;;;;;;;5.50;3.03;;;15.70;99.90;;;;;;4949022;28;20027;-67
2021/08/28 06:04:24;;;;;;;5.93;3.40;;;15.70;99.90;;;;;;4955914;28;20035;-66
2021/08/28 06:06:50;;;;;;;10.93;4.38;;;15.70;99.90;;;;;;4954070;29;20031;-66
2021/08/28 06:09:15;;;;;;;8.20;3.40;;;15.80;99.90;;;;;;4954982;28;20077;-66
2021/08/28 06:11:41;;;;;;;9.38;3.85;;;15.80;99.90;;;;;;4953223;28;20038;-66
2021/08/28 06:14:06;;;;;;;11.70;4.28;;;15.70;99.90;;;;;;4948484;29;20073;-66
2021/08/28 06:16:35;;;;;;;6.63;3.80;;;15.80;99.90;;;;;;4949317;28;20028;-67
2021/08/28 06:19:01;;;;;;;8.60;4.13;;;15.80;99.90;;;;;;4954113;29;20059;-67
2021/08/28 06:21:27;;;;;;;10.02;3.70;;;15.90;99.90;;;;;;4950796;29;20485;-67
2021/08/28 06:23:53;;;;;;;7.40;3.92;;;15.90;99.90;;;;;;4947543;28;20031;-67
2021/08/28 06:26:18;;;;;;;7.97;4.18;;;16.00;99.90;;;;;;4949925;29;20053;-67
2021/08/28 06:28:44;;;;;;;8.07;3.60;;;16.00;99.90;;;;;;4949715;28;20038;-67
2021/08/28 06:31:10;;;;;;;9.90;3.50;;;16.10;99.90;;;;;;4946341;28;20570;-66
2021/08/28 06:33:36;;;;;;;9.77;4.30;;;16.20;99.90;;;;;;4951602;28;20125;-67
2021/08/28 06:36:01;;;;;;;7.22;4.07;;;16.30;99.90;;;;;;4951159;28;20039;-67
2021/08/28 06:38:27;;;;;;;11.05;4.10;;;16.30;99.90;;;;;;4953621;28;20061;-67
2021/08/28 06:40:52;;;;;;;8.02;4.47;;;16.40;99.90;;;;;;4953298;28;20046;-67
2021/08/28 06:43:18;;;;;;;9.57;4.00;;;16.40;99.90;;;;;;4951543;28;20617;-67
2021/08/28 06:45:43;;;;;;;8.43;3.85;;;16.50;99.90;;;;;;4949549;28;20106;-67
2021/08/28 06:48:09;;;;;;;10.75;4.93;;;16.50;99.90;;;;;;4955204;28;20166;-67
2021/08/28 06:50:36;;;;;;;9.25;4.00;;;16.50;99.90;;;;;;4950359;28;20155;-67
2021/08/28 06:53:02;;;;;;;9.05;3.70;;;16.60;99.90;;;;;;4952268;29;20047;-67
2021/08/28 06:55:28;;;;;;;11.15;4.45;;;16.60;99.90;;;;;;4965959;28;20033;-67
2021/08/28 06:57:53;;;;;;;8.20;3.90;;;16.60;99.90;;;;;;4954257;28;20069;-67
2021/08/28 07:00:19;;;;;;;13.18;4.07;;;16.60;99.90;;;;;;4948812;28;20059;-67
2021/08/28 07:02:44;;;;;;;10.55;4.38;;;16.50;99.90;;;;;;4951080;28;20057;-67
2021/08/28 07:05:11;;;;;;;10.38;4.22;;;16.50;99.90;;;;;;4950119;28;20606;-68
2021/08/28 07:07:36;;;;;;;10.18;3.90;;;16.50;99.90;;;;;;4952057;28;20584;-67
2021/08/28 07:10:04;;;;;;;7.97;3.33;;;16.60;99.90;;;;;;4939206;28;20042;-67
2021/08/28 07:12:29;;;;;;;6.82;3.08;;;16.60;99.90;;;;;;4942203;28;20035;-67
2021/08/28 07:14:56;;;;;;;7.82;3.63;;;16.60;99.90;;;;;;4942363;28;20043;-68
2021/08/28 07:17:21;;;;;;;9.60;3.42;;;16.60;99.90;;;;;;4958502;28;20030;-67
2021/08/28 07:19:47;;;;;;;10.80;3.67;;;16.60;99.90;;;;;;4945491;29;20118;-67
2021/08/28 07:22:12;;;;;;;8.55;3.58;;;16.60;99.90;;;;;;4945040;28;20162;-67
2021/08/28 07:24:38;;;;;;;6.85;4.00;;;16.60;99.90;;;;;;4943658;28;20047;-68
2021/08/28 07:27:04;;;;;;;8.23;3.60;;;16.60;99.90;;;;;;4943039;29;20036;-67
2021/08/28 07:29:30;;;;;;;8.45;4.00;;;16.60;99.90;;;;;;4950585;28;20028;-68
2021/08/28 07:31:56;;;;;;;9.45;4.07;;;16.70;99.90;;;;;;4947496;28;20050;-67
2021/08/28 07:34:21;;;;;;;9.93;3.53;;;16.70;99.90;;;;;;4945970;28;20054;-67
2021/08/28 07:36:47;;;;;;;9.43;3.45;;;16.80;99.90;;;;;;4946328;28;20035;-67
2021/08/28 07:39:13;;;;;;;8.60;3.78;;;16.80;99.90;;;;;;4948751;29;20030;-67
2021/08/28 07:41:38;;;;;;;12.55;4.00;;;16.90;99.90;;;;;;4947249;28;20090;-66
2021/08/28 07:44:04;;;;;;;7.32;3.45;;;17.00;99.90;;;;;;4943469;28;20088;-67
2021/08/28 07:46:30;;;;;;;8.48;3.78;;;17.10;99.90;;;;;;4953095;28;20114;-67
2021/08/28 07:48:55;;;;;;;8.68;3.63;;;17.20;99.90;;;;;;4953636;28;20399;-67
2021/08/28 07:51:21;;;;;;;6.03;3.60;;;17.30;99.90;;;;;;4952088;28;20033;-66
2021/08/28 07:53:46;;;;;;;6.38;3.40;;;17.30;99.90;;;;;;4952479;28;20114;-68
2021/08/28 07:56:12;;;;;;;9.82;4.30;;;17.40;99.90;;;;;;4948108;29;20486;-68
2021/08/28 07:58:37;;;;;;;7.65;3.33;;;17.40;99.90;;;;;;4950094;29;20047;-66
2021/08/28 08:01:03;;;;;;;10.90;3.33;;;17.50;99.90;;;;;;4949358;29;20037;-67
2021/08/28 08:03:28;;;;;;;9.20;3.63;;;17.50;99.90;;;;;;4950819;28;20031;-67
2021/08/28 08:05:54;;;;;;;8.98;3.38;;;17.50;99.90;;;;;;4952659;28;20038;-67
2021/08/28 08:08:19;;;;;;;9.10;3.97;;;17.60;99.90;;;;;;4952276;28;20023;-67
2021/08/28 08:10:45;;;;;;;6.78;3.15;;;17.70;99.90;;;;;;4954062;29;20082;-67
2021/08/28 08:13:10;;;;;;;7.65;3.72;;;17.90;99.90;;;;;;4951793;28;20046;-67
2021/08/28 08:15:36;;;;;;;9.75;2.95;;;18.00;99.90;;;;;;4945713;29;20058;-67
2021/08/28 08:18:02;;;;;;;6.00;2.83;;;18.20;99.90;;;;;;4952564;29;20070;-67
2021/08/28 08:20:28;;;;;;;8.35;3.28;;;18.20;99.90;;;;;;4949962;28;20485;-67
2021/08/28 08:22:54;;;;;;;5.30;2.95;;;18.30;99.90;;;;;;4950385;29;20035;-67
2021/08/28 08:25:19;;;;;;;7.03;2.65;;;18.40;99.90;;;;;;4951739;29;20031;-68
2021/08/28 08:27:45;;;;;;;6.93;3.28;;;18.40;99.80;;;;;;4953224;28;20023;-68
2021/08/28 08:30:11;;;;;;;9.07;3.15;;;18.40;99.60;;;;;;4953624;28;20019;-68
2021/08/28 08:32:37;;;;;;;5.82;2.80;;;18.40;99.10;;;;;;4948083;28;20074;-67
2021/08/28 08:35:03;;;;;;;7.78;2.90;;;18.40;98.70;;;;;;4947572;29;20063;-67
2021/08/28 08:37:28;;;;;;;6.20;3.60;;;18.40;98.80;;;;;;4956355;28;20114;-67
2021/08/28 08:39:54;;;;;;;3.88;2.33;;;18.50;98.60;;;;;;4952193;28;20158;-67
2021/08/28 08:42:23;;;;;;;8.13;3.00;;;18.50;98.20;;;;;;4952333;29;20038;-67
2021/08/28 08:44:48;;;;;;;5.72;2.45;;;18.60;98.20;;;;;;4953777;28;20393;-67
2021/08/28 08:47:16;;;;;;;8.05;2.65;;;18.70;98.00;;;;;;4952950;29;20027;-67
2021/08/28 08:49:42;;;;;;;6.07;3.08;;;18.70;97.60;;;;;;4952614;29;20082;-67
2021/08/28 08:52:08;;;;;;;5.07;2.45;;;18.80;97.20;;;;;;4951816;28;20038;-67
2021/08/28 08:54:35;;;;;;;5.40;2.47;;;18.70;96.80;;;;;;4950776;29;20038;-67
2021/08/28 08:57:02;;;;;;;7.35;3.30;;;18.80;97.00;;;;;;4952560;29;20046;-67
2021/08/28 08:59:28;;;;;;;7.00;2.92;;;18.70;96.80;;;;;;4962206;28;20038;-67
2021/08/28 09:01:54;;;;;;;7.18;2.13;;;18.80;96.90;;;;;;4947669;29;20118;-67
2021/08/28 09:04:19;;;;;;;6.28;2.50;;;18.90;96.40;;;;;;4953244;28;20039;-67
2021/08/28 09:06:46;;;;;;;6.07;2.97;;;18.80;96.20;;;;;;4953138;28;20536;-67
2021/08/28 09:09:13;;;;;;;4.93;2.58;;;18.90;96.40;;;;;;4949042;28;20043;-67
2021/08/28 09:11:55;;;;;;;8.20;3.17;;;18.90;96.40;;;;;;4952626;28;20031;-67
2021/08/28 09:14:22;;;;;;;7.43;2.72;;;18.90;96.20;;;;;;4949680;28;20035;-67
2021/08/28 09:16:52;;;;;;;6.20;2.95;;;19.00;96.30;;;;;;4951770;28;20043;-67
2021/08/28 09:19:18;;;;;;;9.75;2.75;;;19.10;96.00;;;;;;4951907;28;20097;-67
2021/08/28 09:21:44;;;;;;;6.88;2.80;;;19.10;95.40;;;;;;4952967;29;20393;-67
2021/08/28 09:24:11;;;;;;;8.45;2.60;;;19.10;95.40;;;;;;4951189;28;20039;-67
2021/08/28 09:26:39;;;;;;;5.97;2.75;;;19.20;95.40;;;;;;4950650;28;20437;-67
2021/08/28 09:29:07;;;;;;;6.18;2.22;;;19.20;94.80;;;;;;4952656;28;20031;-66
2021/08/28 09:31:47;;;;;;;7.57;3.15;;;19.10;94.60;;;;;;4949787;28;20058;-68
2021/08/28 09:34:15;;;;;;;5.35;2.75;;;19.20;94.70;;;;;;4960689;28;20047;-69
2021/08/28 09:36:41;;;;;;;4.93;2.10;;;19.20;94.50;;;;;;4949297;28;20031;-69
2021/08/28 09:39:06;;;;;;;5.85;2.85;;;19.30;94.50;;;;;;4943686;29;20027;-66
2021/08/28 09:41:32;;;;;;;6.55;2.78;;;19.40;94.10;;;;;;4943283;28;20050;-67
2021/08/28 09:44:08;;;;;;;5.30;2.13;;;19.50;94.00;;;;;;4946188;28;20083;-67
2021/08/28 09:46:34;;;;;;;5.35;2.33;;;19.60;94.00;;;;;;4950100;28;20055;-67
2021/08/28 09:49:01;;;;;;;6.82;2.42;;;19.80;94.20;;;;;;4946710;28;20567;-69
2021/08/28 09:51:34;;;;;;;7.93;3.05;;;20.00;94.10;;;;;;4946847;28;20024;-69
2021/08/28 09:54:00;;;;;;;5.07;2.45;;;20.10;93.70;;;;;;4949647;28;20035;-69
2021/08/28 09:56:29;;;;;;;8.30;2.80;;;20.30;93.40;;;;;;4949942;28;20027;-69
2021/08/28 09:58:55;;;;;;;4.75;2.25;;;20.30;92.60;;;;;;4946538;28;20122;-68
2021/08/28 10:01:22;;;;;;;5.25;2.40;;;20.30;92.00;;;;;;4948635;29;20102;-69
2021/08/28 10:03:58;;;;;;;5.63;2.35;;;20.30;91.70;;;;;;4940954;28;20040;-69
2021/08/28 10:06:24;;;;;;;7.32;2.72;;;20.30;91.70;;;;;;4946471;29;20020;-69
2021/08/28 10:08:51;;;;;;;6.85;2.55;;;20.20;91.40;;;;;;4952602;28;20154;-69
2021/08/28 10:11:18;;;;;;;4.65;2.25;;;20.10;91.80;;;;;;4945783;28;20103;-69
2021/08/28 10:13:46;;;;;;;9.43;2.53;;;20.20;91.40;;;;;;4954250;29;20035;-69
2021/08/28 10:16:12;;;;;;;5.97;2.38;;;20.30;91.70;;;;;;4954839;29;20510;-68
2021/08/28 10:18:39;;;;;;;4.57;2.25;;;20.40;91.60;;;;;;4955262;28;20031;-68
2021/08/28 10:21:10;;;;;;;6.20;2.83;;;20.40;90.90;;;;;;4954344;28;20027;-68
2021/08/28 10:23:37;;;;;;;4.68;2.22;;;20.50;90.20;;;;;;4953954;29;20031;-68
2021/08/28 10:26:04;;;;;;;4.50;2.17;;;20.50;89.50;;;;;;4955408;28;20075;-69
2021/08/28 10:28:31;;;;;;;3.08;1.60;;;20.50;89.70;;;;;;4953897;28;20027;-68
2021/08/28 10:30:57;;;;;;;4.68;1.85;;;20.70;89.70;;;;;;4954681;28;20019;-69
2021/08/28 10:33:23;;;;;;;5.32;2.22;;;20.90;89.20;;;;;;4952824;29;20094;-68
2021/08/28 10:35:48;;;;;;;4.85;2.05;;;21.00;87.80;;;;;;4955710;28;20393;-68
2021/08/28 10:38:15;;;;;;;3.35;1.75;;;21.20;86.90;;;;;;4970048;28;20031;-69
2021/08/28 10:40:42;;;;;;;3.28;2.08;;;21.20;86.60;;;;;;4954560;28;20031;-69
2021/08/28 10:43:09;;;;;;;5.00;2.13;;;21.20;87.00;;;;;;4954071;28;20035;-69
2021/08/28 10:45:37;;;;;;;3.67;1.90;;;21.10;86.00;;;;;;4955510;28;20027;-68
2021/08/28 10:48:05;;;;;;;4.25;1.90;;;21.00;85.40;;;;;;4951336;28;20119;-69
2021/08/28 10:50:36;;;;;;;3.45;1.48;;;20.90;85.40;;;;;;4953532;29;20074;-69
2021/08/28 10:53:03;;;;;;;3.35;2.15;;;21.10;85.90;;;;;;4951914;28;20215;-68
2021/08/28 10:55:38;;;;;;;2.47;1.30;;;21.30;84.50;;;;;;4951606;29;20382;-67
2021/08/28 10:58:20;;;;;;;2.47;1.17;;;21.20;82.40;;;;;;4954634;28;20466;-69
2021/08/28 11:00:48;;;;;;;9.73;1.80;;;21.10;82.40;;;;;;4953625;28;20142;-68
2021/08/28 11:03:32;;;;;;;2.75;1.13;;;21.00;82.60;;;;;;4952710;28;20471;-68
2021/08/28 11:06:16;;;;;;;3.65;1.33;;;21.00;83.50;;;;;;4955466;28;20028;-68
2021/08/28 11:08:47;;;;;;;3.08;1.55;;;20.90;82.10;;;;;;4954461;28;20015;-69
2021/08/28 11:11:21;;;;;;;3.65;1.38;;;20.80;81.30;;;;;;4951656;28;20023;-68
2021/08/28 11:13:57;;;;;;;1.58;1.00;;;20.80;82.10;;;;;;4955667;28;20023;-68
2021/08/28 11:16:41;;;;;;;3.17;1.13;;;20.80;81.80;;;;;;4949730;29;20585;-68
2021/08/28 11:19:11;;;;;;;3.20;1.30;;;20.90;82.30;;;;;;4953218;29;20027;-68
2021/08/28 11:21:45;;;;;;;5.07;1.20;;;20.90;82.20;;;;;;4954548;29;20054;-68
2021/08/28 11:24:16;;;;;;;3.65;1.30;;;21.10;82.30;;;;;;4951395;28;20066;-68
2021/08/28 11:26:42;;;;;;;3.42;1.40;;;21.10;82.00;;;;;;4952531;28;20095;-68
2021/08/28 11:29:33;;;;;;;3.28;1.20;;;21.10;82.00;;;;;;4954689;29;20122;-68
2021/08/28 11:32:21;;;;;;;2.92;1.58;;;21.20;82.40;;;;;;4951177;29;20043;-68
2021/08/28 11:34:53;;;;;;;4.85;1.65;;;21.30;82.60;;;;;;4967810;28;20066;-68
2021/08/28 11:37:37;;;;;;;3.73;1.17;;;21.30;83.00;;;;;;4954316;29;20595;-68
2021/08/28 11:40:25;;;;;;;3.13;1.63;;;21.40;82.70;;;;;;4954000;28;20035;-69
2021/08/28 11:42:51;;;;;;;5.60;1.92;;;21.50;82.70;;;;;;4957982;28;20058;-68
2021/08/28 11:45:18;;;;;;;4.25;1.40;;;21.50;82.30;;;;;;4948081;28;21143;-69
2021/08/28 11:47:44;;;;;;;3.42;1.23;;;21.50;82.60;;;;;;4951171;28;20054;-68
2021/08/28 11:50:09;;;;;;;4.72;1.30;;;21.50;83.00;;;;;;4950335;28;20054;-68
2021/08/28 11:52:37;;;;;;;4.82;1.15;;;21.60;83.50;;;;;;4950809;28;20062;-68
2021/08/28 11:55:07;;;;;;;3.92;1.50;;;21.80;83.60;;;;;;4953750;28;20397;-68
2021/08/28 11:57:35;;;;;;;2.90;1.42;;;22.00;83.00;;;;;;4954074;28;20536;-68
2021/08/28 12:00:01;;;;;;;5.07;1.90;;;22.10;82.00;;;;;;4953646;28;20086;-68
2021/08/28 12:02:26;;;;;;;3.97;1.48;;;22.20;81.80;;;;;;4954213;28;20075;-68
2021/08/28 12:04:52;;;;;;;5.80;1.90;;;22.30;81.40;;;;;;4952864;28;20059;-68
2021/08/28 12:07:17;;;;;;;5.32;1.80;;;22.30;80.60;;;;;;4953955;28;20032;-67
2021/08/28 12:09:43;;;;;;;3.97;1.60;;;22.30;81.10;;;;;;4954114;28;20394;-68
2021/08/28 12:12:09;;;;;;;4.97;1.63;;;22.20;80.10;;;;;;4953915;29;20403;-68
2021/08/28 12:14:35;;;;;;;4.43;1.58;;;22.10;80.80;;;;;;4953936;28;20114;-67
2021/08/28 12:17:02;;;;;;;4.85;1.95;;;22.00;80.70;;;;;;4954135;28;20142;-68
2021/08/28 12:19:30;;;;;;;3.20;1.33;;;21.70;80.50;;;;;;4953697;29;20522;-68
2021/08/28 12:22:02;;;;;;;4.43;0.93;;;21.40;81.70;;;;;;4953949;28;20047;-68
2021/08/28 12:24:30;;;;;;;6.68;1.48;;;21.10;82.00;;;;;;4972298;28;20421;-68
2021/08/28 12:27:01;;;;;;;2.53;1.35;;;20.90;82.10;;;;;;4969055;28;20394;-68
2021/08/28 12:29:32;;;;;;;5.22;1.30;;;20.70;82.70;;;;;;4953650;28;20038;-68
2021/08/28 12:32:06;;;;;;;5.72;1.30;;;20.70;83.00;;;;;;4943031;28;20237;-68
2021/08/28 12:34:34;;;;;;;3.80;1.80;;;20.70;83.20;;;;;;4951442;28;20035;-68
2021/08/28 12:37:02;;;;;;;2.58;1.13;;;20.80;83.00;;;;;;4953974;28;20027;-68
2021/08/28 12:39:28;;;;;;;3.88;1.52;;;21.00;83.00;;;;;;4953679;28;20074;-68
2021/08/28 12:41:55;;;;;;;3.95;1.20;;;21.30;81.90;;;;;;4953719;28;20042;-68
2021/08/28 12:44:21;;;;;;;4.75;1.40;;;21.50;82.20;;;;;;4953175;28;20125;-68